sensor_id;sensor_type;location;lat;lon;timestamp;P1;durP1;ratioP1;P2;durP2;ratioP2
4460;SDS011;2243;48.812;9.232;2023-02-17T00:00:34;7.80;;;4.20;;
4460;SDS011;2243;48.812;9.232;2023-02-17T00:03:05;4.70;;;3.80;;
4460;SDS011;2243;48.812;9.232;2023-02-17T00:05:37;4.87;;;4.30;;
4460;SDS011;2243;48.812;9.232;2023-02-17T00:08:09;5.40;;;4.00;;
4460;SDS011;2243;48.812;9.232;2023-02-17T00:10:40;5.50;;;3.90;;
4460;SDS011;2243;48.812;9.232;2023-02-17T00:13:11;4.10;;;3.80;;
4460;SDS011;2243;48.812;9.232;2023-02-17T00:15:42;5.80;;;3.80;;
4460;SDS011;2243;48.812;9.232;2023-02-17T00:18:13;4.50;;;4.10;;
4460;SDS011;2243;48.812;9.232;2023-02-17T00:20:44;4.30;;;3.50;;
4460;SDS011;2243;48.812;9.232;2023-02-17T00:23:15;5.53;;;4.03;;
4460;SDS011;2243;48.812;9.232;2023-02-17T00:25:46;6.70;;;3.57;;
4460;SDS011;2243;48.812;9.232;2023-02-17T00:28:17;4.03;;;3.40;;
4460;SDS011;2243;48.812;9.232;2023-02-17T00:30:48;6.07;;;3.60;;
4460;SDS011;2243;48.812;9.232;2023-02-17T00:33:19;5.47;;;4.00;;
4460;SDS011;2243;48.812;9.232;2023-02-17T00:35:50;4.53;;;3.97;;
4460;SDS011;2243;48.812;9.232;2023-02-17T00:38:21;5.70;;;4.10;;
4460;SDS011;2243;48.812;9.232;2023-02-17T00:40:52;4.57;;;4.17;;
4460;SDS011;2243;48.812;9.232;2023-02-17T00:43:23;11.23;;;4.80;;
4460;SDS011;2243;48.812;9.232;2023-02-17T00:45:54;3.87;;;3.57;;
4460;SDS011;2243;48.812;9.232;2023-02-17T00:48:25;3.93;;;3.53;;
4460;SDS011;2243;48.812;9.232;2023-02-17T00:50:56;5.20;;;4.70;;
4460;SDS011;2243;48.812;9.232;2023-02-17T00:53:27;6.67;;;4.13;;
4460;SDS011;2243;48.812;9.232;2023-02-17T00:55:58;4.80;;;4.30;;
4460;SDS011;2243;48.812;9.232;2023-02-17T00:58:29;4.53;;;3.70;;
4460;SDS011;2243;48.812;9.232;2023-02-17T01:01:00;4.83;;;3.50;;
4460;SDS011;2243;48.812;9.232;2023-02-17T01:03:31;4.90;;;3.93;;
4460;SDS011;2243;48.812;9.232;2023-02-17T01:06:06;5.30;;;4.10;;
4460;SDS011;2243;48.812;9.232;2023-02-17T01:08:40;5.00;;;3.70;;
4460;SDS011;2243;48.812;9.232;2023-02-17T01:11:21;3.80;;;3.50;;
4460;SDS011;2243;48.812;9.232;2023-02-17T01:13:55;6.50;;;4.40;;
4460;SDS011;2243;48.812;9.232;2023-02-17T01:16:28;3.63;;;3.33;;
4460;SDS011;2243;48.812;9.232;2023-02-17T01:19:06;6.70;;;4.10;;
4460;SDS011;2243;48.812;9.232;2023-02-17T01:21:40;7.00;;;3.77;;
4460;SDS011;2243;48.812;9.232;2023-02-17T01:24:12;5.30;;;4.33;;
4460;SDS011;2243;48.812;9.232;2023-02-17T01:26:43;5.63;;;4.33;;
4460;SDS011;2243;48.812;9.232;2023-02-17T01:29:14;6.20;;;4.80;;
4460;SDS011;2243;48.812;9.232;2023-02-17T01:31:45;5.77;;;4.17;;
4460;SDS011;2243;48.812;9.232;2023-02-17T01:34:16;8.73;;;4.23;;
4460;SDS011;2243;48.812;9.232;2023-02-17T01:36:47;8.17;;;3.97;;
4460;SDS011;2243;48.812;9.232;2023-02-17T01:39:18;6.80;;;3.90;;
4460;SDS011;2243;48.812;9.232;2023-02-17T01:41:49;4.33;;;3.80;;
4460;SDS011;2243;48.812;9.232;2023-02-17T01:44:21;11.60;;;4.23;;
4460;SDS011;2243;48.812;9.232;2023-02-17T01:46:54;4.80;;;3.93;;
4460;SDS011;2243;48.812;9.232;2023-02-17T01:49:29;6.50;;;4.10;;
4460;SDS011;2243;48.812;9.232;2023-02-17T01:54:43;4.07;;;3.77;;
4460;SDS011;2243;48.812;9.232;2023-02-17T01:57:25;5.73;;;3.50;;
4460;SDS011;2243;48.812;9.232;2023-02-17T02:00:02;4.43;;;3.40;;
4460;SDS011;2243;48.812;9.232;2023-02-17T02:02:36;4.60;;;4.13;;
4460;SDS011;2243;48.812;9.232;2023-02-17T02:05:08;9.30;;;4.90;;
4460;SDS011;2243;48.812;9.232;2023-02-17T02:07:41;11.43;;;4.00;;
4460;SDS011;2243;48.812;9.232;2023-02-17T02:10:17;7.57;;;3.80;;
4460;SDS011;2243;48.812;9.232;2023-02-17T02:12:49;5.83;;;4.00;;
4460;SDS011;2243;48.812;9.232;2023-02-17T02:15:20;7.93;;;4.70;;
4460;SDS011;2243;48.812;9.232;2023-02-17T02:24:19;8.33;;;4.80;;
4460;SDS011;2243;48.812;9.232;2023-02-17T02:27:24;6.57;;;4.13;;
4460;SDS011;2243;48.812;9.232;2023-02-17T02:30:49;5.17;;;3.93;;
4460;SDS011;2243;48.812;9.232;2023-02-17T02:33:39;9.00;;;4.20;;
4460;SDS011;2243;48.812;9.232;2023-02-17T02:36:24;5.60;;;3.93;;
4460;SDS011;2243;48.812;9.232;2023-02-17T02:39:12;5.77;;;4.17;;
4460;SDS011;2243;48.812;9.232;2023-02-17T02:41:49;5.13;;;4.30;;
4460;SDS011;2243;48.812;9.232;2023-02-17T02:44:24;13.10;;;5.17;;
4460;SDS011;2243;48.812;9.232;2023-02-17T02:47:39;7.23;;;4.70;;
4460;SDS011;2243;48.812;9.232;2023-02-17T02:50:31;6.40;;;4.40;;
4460;SDS011;2243;48.812;9.232;2023-02-17T03:02:29;9.73;;;4.40;;
4460;SDS011;2243;48.812;9.232;2023-02-17T03:08:48;5.40;;;4.30;;
4460;SDS011;2243;48.812;9.232;2023-02-17T03:11:27;7.90;;;4.90;;
4460;SDS011;2243;48.812;9.232;2023-02-17T03:14:03;6.50;;;4.93;;
4460;SDS011;2243;48.812;9.232;2023-02-17T03:16:42;5.80;;;4.57;;
4460;SDS011;2243;48.812;9.232;2023-02-17T03:19:14;5.43;;;4.03;;
4460;SDS011;2243;48.812;9.232;2023-02-17T03:24:42;7.80;;;4.80;;
4460;SDS011;2243;48.812;9.232;2023-02-17T03:27:13;11.60;;;5.00;;
4460;SDS011;2243;48.812;9.232;2023-02-17T03:29:44;5.53;;;4.77;;
4460;SDS011;2243;48.812;9.232;2023-02-17T03:32:15;7.43;;;5.60;;
4460;SDS011;2243;48.812;9.232;2023-02-17T03:34:46;6.13;;;4.67;;
4460;SDS011;2243;48.812;9.232;2023-02-17T03:37:17;5.03;;;4.50;;
4460;SDS011;2243;48.812;9.232;2023-02-17T03:39:48;4.43;;;4.13;;
4460;SDS011;2243;48.812;9.232;2023-02-17T03:42:19;5.33;;;4.17;;
4460;SDS011;2243;48.812;9.232;2023-02-17T03:44:50;3.83;;;3.50;;
4460;SDS011;2243;48.812;9.232;2023-02-17T03:47:21;9.27;;;4.30;;
4460;SDS011;2243;48.812;9.232;2023-02-17T03:49:52;4.87;;;3.80;;
4460;SDS011;2243;48.812;9.232;2023-02-17T03:52:23;7.03;;;4.03;;
4460;SDS011;2243;48.812;9.232;2023-02-17T03:54:54;17.67;;;3.73;;
4460;SDS011;2243;48.812;9.232;2023-02-17T03:57:25;4.07;;;3.70;;
4460;SDS011;2243;48.812;9.232;2023-02-17T03:59:56;12.10;;;4.67;;
4460;SDS011;2243;48.812;9.232;2023-02-17T04:02:27;8.73;;;4.90;;
4460;SDS011;2243;48.812;9.232;2023-02-17T04:04:58;4.20;;;3.80;;
4460;SDS011;2243;48.812;9.232;2023-02-17T04:07:29;5.70;;;4.80;;
4460;SDS011;2243;48.812;9.232;2023-02-17T04:10:00;6.67;;;4.73;;
4460;SDS011;2243;48.812;9.232;2023-02-17T04:12:34;5.97;;;4.83;;
4460;SDS011;2243;48.812;9.232;2023-02-17T04:15:05;7.57;;;5.00;;
4460;SDS011;2243;48.812;9.232;2023-02-17T04:17:36;9.10;;;5.60;;
4460;SDS011;2243;48.812;9.232;2023-02-17T04:20:08;9.60;;;5.60;;
4460;SDS011;2243;48.812;9.232;2023-02-17T04:22:39;7.30;;;4.87;;
4460;SDS011;2243;48.812;9.232;2023-02-17T04:25:10;7.13;;;5.03;;
4460;SDS011;2243;48.812;9.232;2023-02-17T04:27:41;8.33;;;5.23;;
4460;SDS011;2243;48.812;9.232;2023-02-17T04:30:12;10.50;;;4.90;;
4460;SDS011;2243;48.812;9.232;2023-02-17T04:32:44;14.40;;;4.90;;
4460;SDS011;2243;48.812;9.232;2023-02-17T04:35:15;11.43;;;5.30;;
4460;SDS011;2243;48.812;9.232;2023-02-17T04:37:46;12.47;;;4.97;;
4460;SDS011;2243;48.812;9.232;2023-02-17T04:40:17;12.03;;;4.40;;
4460;SDS011;2243;48.812;9.232;2023-02-17T04:42:48;5.70;;;4.87;;
4460;SDS011;2243;48.812;9.232;2023-02-17T04:45:19;7.60;;;4.33;;
4460;SDS011;2243;48.812;9.232;2023-02-17T04:47:51;9.20;;;4.90;;
4460;SDS011;2243;48.812;9.232;2023-02-17T04:50:22;8.30;;;5.40;;
4460;SDS011;2243;48.812;9.232;2023-02-17T04:52:53;7.40;;;4.13;;
4460;SDS011;2243;48.812;9.232;2023-02-17T04:55:24;8.13;;;4.50;;
4460;SDS011;2243;48.812;9.232;2023-02-17T04:57:55;6.07;;;4.17;;
4460;SDS011;2243;48.812;9.232;2023-02-17T05:00:26;6.77;;;4.80;;
4460;SDS011;2243;48.812;9.232;2023-02-17T05:02:57;3.80;;;3.50;;
4460;SDS011;2243;48.812;9.232;2023-02-17T05:05:28;9.97;;;4.40;;
4460;SDS011;2243;48.812;9.232;2023-02-17T05:07:59;8.23;;;4.23;;
4460;SDS011;2243;48.812;9.232;2023-02-17T05:10:30;12.70;;;4.23;;
4460;SDS011;2243;48.812;9.232;2023-02-17T05:13:01;4.40;;;3.53;;
4460;SDS011;2243;48.812;9.232;2023-02-17T05:15:32;3.90;;;3.60;;
4460;SDS011;2243;48.812;9.232;2023-02-17T05:18:04;6.30;;;3.70;;
4460;SDS011;2243;48.812;9.232;2023-02-17T05:20:35;4.87;;;3.30;;
4460;SDS011;2243;48.812;9.232;2023-02-17T05:23:06;3.93;;;3.53;;
4460;SDS011;2243;48.812;9.232;2023-02-17T05:25:37;5.10;;;3.80;;
4460;SDS011;2243;48.812;9.232;2023-02-17T05:28:10;7.10;;;4.13;;
4460;SDS011;2243;48.812;9.232;2023-02-17T05:30:41;5.00;;;3.93;;
4460;SDS011;2243;48.812;9.232;2023-02-17T05:33:11;6.80;;;3.90;;
4460;SDS011;2243;48.812;9.232;2023-02-17T05:35:43;3.50;;;3.20;;
4460;SDS011;2243;48.812;9.232;2023-02-17T05:38:13;3.00;;;2.80;;
4460;SDS011;2243;48.812;9.232;2023-02-17T05:40:44;3.63;;;3.33;;
4460;SDS011;2243;48.812;9.232;2023-02-17T05:43:15;4.37;;;3.70;;
4460;SDS011;2243;48.812;9.232;2023-02-17T05:45:46;3.80;;;3.30;;
4460;SDS011;2243;48.812;9.232;2023-02-17T05:48:17;3.70;;;3.40;;
4460;SDS011;2243;48.812;9.232;2023-02-17T05:50:48;3.83;;;3.30;;
4460;SDS011;2243;48.812;9.232;2023-02-17T05:53:19;5.43;;;3.73;;
4460;SDS011;2243;48.812;9.232;2023-02-17T05:55:50;9.17;;;3.10;;
4460;SDS011;2243;48.812;9.232;2023-02-17T05:58:21;4.30;;;3.50;;
4460;SDS011;2243;48.812;9.232;2023-02-17T06:00:52;3.73;;;3.43;;
4460;SDS011;2243;48.812;9.232;2023-02-17T06:03:23;4.00;;;3.27;;
4460;SDS011;2243;48.812;9.232;2023-02-17T06:05:54;4.90;;;3.40;;
4460;SDS011;2243;48.812;9.232;2023-02-17T06:08:25;6.20;;;3.70;;
4460;SDS011;2243;48.812;9.232;2023-02-17T06:10:56;4.80;;;3.87;;
4460;SDS011;2243;48.812;9.232;2023-02-17T06:13:27;7.20;;;4.00;;
4460;SDS011;2243;48.812;9.232;2023-02-17T06:15:58;5.83;;;3.50;;
4460;SDS011;2243;48.812;9.232;2023-02-17T06:18:29;10.87;;;3.30;;
4460;SDS011;2243;48.812;9.232;2023-02-17T06:21:00;4.67;;;4.00;;
4460;SDS011;2243;48.812;9.232;2023-02-17T06:23:31;6.83;;;3.67;;
4460;SDS011;2243;48.812;9.232;2023-02-17T06:26:01;4.00;;;2.70;;
4460;SDS011;2243;48.812;9.232;2023-02-17T06:28:33;3.93;;;3.17;;
4460;SDS011;2243;48.812;9.232;2023-02-17T06:31:04;3.57;;;3.13;;
4460;SDS011;2243;48.812;9.232;2023-02-17T06:33:35;7.63;;;4.00;;
4460;SDS011;2243;48.812;9.232;2023-02-17T06:36:06;4.73;;;3.60;;
4460;SDS011;2243;48.812;9.232;2023-02-17T06:38:37;3.53;;;3.30;;
4460;SDS011;2243;48.812;9.232;2023-02-17T06:41:08;4.40;;;3.70;;
4460;SDS011;2243;48.812;9.232;2023-02-17T06:43:39;4.30;;;3.70;;
4460;SDS011;2243;48.812;9.232;2023-02-17T06:46:10;5.27;;;3.43;;
4460;SDS011;2243;48.812;9.232;2023-02-17T06:48:41;3.00;;;2.80;;
4460;SDS011;2243;48.812;9.232;2023-02-17T06:51:12;6.57;;;3.30;;
4460;SDS011;2243;48.812;9.232;2023-02-17T06:53:43;6.10;;;3.23;;
4460;SDS011;2243;48.812;9.232;2023-02-17T06:56:14;4.70;;;2.93;;
4460;SDS011;2243;48.812;9.232;2023-02-17T06:58:45;6.53;;;3.40;;
4460;SDS011;2243;48.812;9.232;2023-02-17T07:01:18;6.33;;;2.83;;
4460;SDS011;2243;48.812;9.232;2023-02-17T07:03:52;3.97;;;3.50;;
4460;SDS011;2243;48.812;9.232;2023-02-17T07:06:24;4.67;;;3.40;;
4460;SDS011;2243;48.812;9.232;2023-02-17T07:08:56;5.00;;;3.00;;
4460;SDS011;2243;48.812;9.232;2023-02-17T07:11:27;3.70;;;3.30;;
4460;SDS011;2243;48.812;9.232;2023-02-17T07:14:00;5.27;;;3.33;;
4460;SDS011;2243;48.812;9.232;2023-02-17T07:16:31;3.67;;;3.27;;
4460;SDS011;2243;48.812;9.232;2023-02-17T07:19:02;4.70;;;2.97;;
4460;SDS011;2243;48.812;9.232;2023-02-17T07:21:34;4.40;;;3.43;;
4460;SDS011;2243;48.812;9.232;2023-02-17T07:24:06;3.50;;;3.20;;
4460;SDS011;2243;48.812;9.232;2023-02-17T07:26:38;3.57;;;3.27;;
4460;SDS011;2243;48.812;9.232;2023-02-17T07:29:10;3.93;;;3.53;;
4460;SDS011;2243;48.812;9.232;2023-02-17T07:31:40;6.00;;;3.60;;
4460;SDS011;2243;48.812;9.232;2023-02-17T07:34:11;3.47;;;3.17;;
4460;SDS011;2243;48.812;9.232;2023-02-17T07:36:42;5.13;;;3.23;;
4460;SDS011;2243;48.812;9.232;2023-02-17T07:39:13;3.90;;;3.57;;
4460;SDS011;2243;48.812;9.232;2023-02-17T07:41:45;4.47;;;3.00;;
4460;SDS011;2243;48.812;9.232;2023-02-17T07:44:16;4.13;;;2.60;;
4460;SDS011;2243;48.812;9.232;2023-02-17T07:46:47;3.93;;;3.10;;
4460;SDS011;2243;48.812;9.232;2023-02-17T07:49:17;5.30;;;3.27;;
4460;SDS011;2243;48.812;9.232;2023-02-17T07:51:48;3.27;;;2.97;;
4460;SDS011;2243;48.812;9.232;2023-02-17T07:54:19;5.00;;;2.73;;
4460;SDS011;2243;48.812;9.232;2023-02-17T07:56:50;3.80;;;3.30;;
4460;SDS011;2243;48.812;9.232;2023-02-17T07:59:21;4.80;;;3.40;;
4460;SDS011;2243;48.812;9.232;2023-02-17T08:01:52;5.57;;;3.70;;
4460;SDS011;2243;48.812;9.232;2023-02-17T08:04:23;3.13;;;2.87;;
4460;SDS011;2243;48.812;9.232;2023-02-17T08:06:54;2.87;;;2.63;;
4460;SDS011;2243;48.812;9.232;2023-02-17T08:09:25;2.77;;;2.57;;
4460;SDS011;2243;48.812;9.232;2023-02-17T08:12:15;3.50;;;2.93;;
4460;SDS011;2243;48.812;9.232;2023-02-17T08:15:07;2.80;;;2.60;;
4460;SDS011;2243;48.812;9.232;2023-02-17T08:17:39;7.13;;;3.13;;
4460;SDS011;2243;48.812;9.232;2023-02-17T08:20:10;4.30;;;2.80;;
4460;SDS011;2243;48.812;9.232;2023-02-17T08:22:42;3.73;;;3.43;;
4460;SDS011;2243;48.812;9.232;2023-02-17T08:25:13;2.70;;;2.60;;
4460;SDS011;2243;48.812;9.232;2023-02-17T08:27:44;3.20;;;2.60;;
4460;SDS011;2243;48.812;9.232;2023-02-17T08:30:15;3.37;;;3.17;;
4460;SDS011;2243;48.812;9.232;2023-02-17T08:32:46;3.10;;;2.80;;
4460;SDS011;2243;48.812;9.232;2023-02-17T08:35:17;3.33;;;2.23;;
4460;SDS011;2243;48.812;9.232;2023-02-17T08:37:51;3.17;;;2.87;;
4460;SDS011;2243;48.812;9.232;2023-02-17T08:40:22;3.70;;;2.53;;
4460;SDS011;2243;48.812;9.232;2023-02-17T08:42:54;4.13;;;2.70;;
4460;SDS011;2243;48.812;9.232;2023-02-17T08:45:25;4.40;;;2.43;;
4460;SDS011;2243;48.812;9.232;2023-02-17T08:47:56;3.27;;;3.07;;
4460;SDS011;2243;48.812;9.232;2023-02-17T08:50:27;3.07;;;2.80;;
4460;SDS011;2243;48.812;9.232;2023-02-17T08:52:59;4.70;;;2.70;;
4460;SDS011;2243;48.812;9.232;2023-02-17T08:55:30;2.53;;;2.33;;
4460;SDS011;2243;48.812;9.232;2023-02-17T08:58:17;3.73;;;1.90;;
4460;SDS011;2243;48.812;9.232;2023-02-17T09:00:48;2.40;;;2.30;;
4460;SDS011;2243;48.812;9.232;2023-02-17T09:03:19;4.80;;;2.43;;
4460;SDS011;2243;48.812;9.232;2023-02-17T09:05:54;3.20;;;2.43;;
4460;SDS011;2243;48.812;9.232;2023-02-17T09:08:29;6.60;;;2.73;;
4460;SDS011;2243;48.812;9.232;2023-02-17T09:11:02;2.20;;;2.00;;
4460;SDS011;2243;48.812;9.232;2023-02-17T09:13:34;2.30;;;2.17;;
4460;SDS011;2243;48.812;9.232;2023-02-17T09:16:06;2.73;;;2.10;;
4460;SDS011;2243;48.812;9.232;2023-02-17T09:18:38;2.60;;;2.40;;
4460;SDS011;2243;48.812;9.232;2023-02-17T09:21:10;1.70;;;1.60;;
4460;SDS011;2243;48.812;9.232;2023-02-17T09:23:42;2.73;;;2.53;;
4460;SDS011;2243;48.812;9.232;2023-02-17T09:26:14;2.30;;;2.10;;
4460;SDS011;2243;48.812;9.232;2023-02-17T09:28:46;2.50;;;2.33;;
4460;SDS011;2243;48.812;9.232;2023-02-17T09:31:21;1.83;;;1.73;;
4460;SDS011;2243;48.812;9.232;2023-02-17T09:33:55;2.73;;;2.23;;
4460;SDS011;2243;48.812;9.232;2023-02-17T09:36:28;3.13;;;1.90;;
4460;SDS011;2243;48.812;9.232;2023-02-17T09:39:11;2.83;;;2.30;;
4460;SDS011;2243;48.812;9.232;2023-02-17T09:44:26;3.90;;;2.40;;
4460;SDS011;2243;48.812;9.232;2023-02-17T09:47:19;2.90;;;2.17;;
4460;SDS011;2243;48.812;9.232;2023-02-17T09:49:56;3.13;;;2.20;;
4460;SDS011;2243;48.812;9.232;2023-02-17T09:52:40;2.80;;;2.20;;
4460;SDS011;2243;48.812;9.232;2023-02-17T09:55:38;1.93;;;1.87;;
4460;SDS011;2243;48.812;9.232;2023-02-17T09:58:19;1.70;;;1.60;;
4460;SDS011;2243;48.812;9.232;2023-02-17T10:01:05;2.00;;;1.90;;
4460;SDS011;2243;48.812;9.232;2023-02-17T10:03:50;1.90;;;1.77;;
4460;SDS011;2243;48.812;9.232;2023-02-17T10:12:00;3.17;;;2.47;;
4460;SDS011;2243;48.812;9.232;2023-02-17T10:14:56;2.47;;;2.23;;
4460;SDS011;2243;48.812;9.232;2023-02-17T10:17:34;1.90;;;1.80;;
4460;SDS011;2243;48.812;9.232;2023-02-17T10:20:19;2.70;;;1.90;;
4460;SDS011;2243;48.812;9.232;2023-02-17T10:23:20;3.00;;;2.50;;
4460;SDS011;2243;48.812;9.232;2023-02-17T10:26:14;3.73;;;2.07;;
4460;SDS011;2243;48.812;9.232;2023-02-17T10:29:05;2.10;;;2.00;;
4460;SDS011;2243;48.812;9.232;2023-02-17T10:35:14;3.43;;;2.43;;
4460;SDS011;2243;48.812;9.232;2023-02-17T10:41:02;1.70;;;1.60;;
4460;SDS011;2243;48.812;9.232;2023-02-17T10:43:39;1.63;;;1.53;;
4460;SDS011;2243;48.812;9.232;2023-02-17T10:46:11;2.40;;;2.20;;
4460;SDS011;2243;48.812;9.232;2023-02-17T10:48:47;2.77;;;1.83;;
4460;SDS011;2243;48.812;9.232;2023-02-17T10:51:22;1.60;;;1.50;;
4460;SDS011;2243;48.812;9.232;2023-02-17T10:54:05;1.90;;;1.73;;
4460;SDS011;2243;48.812;9.232;2023-02-17T10:56:49;5.70;;;1.63;;
4460;SDS011;2243;48.812;9.232;2023-02-17T10:59:27;2.30;;;1.70;;
4460;SDS011;2243;48.812;9.232;2023-02-17T11:05:03;1.83;;;1.73;;
4460;SDS011;2243;48.812;9.232;2023-02-17T11:07:35;1.93;;;1.57;;
4460;SDS011;2243;48.812;9.232;2023-02-17T11:10:22;2.20;;;1.90;;
4460;SDS011;2243;48.812;9.232;2023-02-17T11:12:57;1.33;;;1.23;;
4460;SDS011;2243;48.812;9.232;2023-02-17T11:15:35;2.17;;;1.97;;
4460;SDS011;2243;48.812;9.232;2023-02-17T11:18:19;1.57;;;1.47;;
4460;SDS011;2243;48.812;9.232;2023-02-17T11:20:59;4.43;;;1.40;;
4460;SDS011;2243;48.812;9.232;2023-02-17T11:23:47;2.33;;;1.57;;
4460;SDS011;2243;48.812;9.232;2023-02-17T11:26:25;4.60;;;1.30;;
4460;SDS011;2243;48.812;9.232;2023-02-17T11:29:17;2.13;;;1.57;;
4460;SDS011;2243;48.812;9.232;2023-02-17T11:32:02;4.80;;;1.60;;
4460;SDS011;2243;48.812;9.232;2023-02-17T11:34:40;1.60;;;1.50;;
4460;SDS011;2243;48.812;9.232;2023-02-17T11:37:18;3.17;;;1.27;;
4460;SDS011;2243;48.812;9.232;2023-02-17T11:39:54;2.20;;;1.20;;
4460;SDS011;2243;48.812;9.232;2023-02-17T11:42:26;2.63;;;1.13;;
4460;SDS011;2243;48.812;9.232;2023-02-17T11:45:00;0.83;;;0.83;;
4460;SDS011;2243;48.812;9.232;2023-02-17T11:50:55;1.00;;;1.00;;
4460;SDS011;2243;48.812;9.232;2023-02-17T11:56:36;1.57;;;1.47;;
4460;SDS011;2243;48.812;9.232;2023-02-17T12:05:17;0.87;;;0.87;;
4460;SDS011;2243;48.812;9.232;2023-02-17T12:11:29;1.20;;;1.10;;
4460;SDS011;2243;48.812;9.232;2023-02-17T12:24:21;1.50;;;1.40;;
4460;SDS011;2243;48.812;9.232;2023-02-17T12:30:29;1.30;;;1.10;;
4460;SDS011;2243;48.812;9.232;2023-02-17T12:33:28;1.07;;;1.07;;
4460;SDS011;2243;48.812;9.232;2023-02-17T12:36:17;1.87;;;1.00;;
4460;SDS011;2243;48.812;9.232;2023-02-17T12:38:52;1.57;;;1.47;;
4460;SDS011;2243;48.812;9.232;2023-02-17T12:41:39;2.63;;;1.60;;
4460;SDS011;2243;48.812;9.232;2023-02-17T12:44:36;1.50;;;1.40;;
4460;SDS011;2243;48.812;9.232;2023-02-17T12:52:53;1.20;;;1.10;;
4460;SDS011;2243;48.812;9.232;2023-02-17T12:55:29;6.43;;;1.57;;
4460;SDS011;2243;48.812;9.232;2023-02-17T12:58:19;4.83;;;1.47;;
4460;SDS011;2243;48.812;9.232;2023-02-17T13:01:06;2.17;;;1.53;;
4460;SDS011;2243;48.812;9.232;2023-02-17T13:03:43;0.97;;;0.97;;
4460;SDS011;2243;48.812;9.232;2023-02-17T13:06:18;0.90;;;0.90;;
4460;SDS011;2243;48.812;9.232;2023-02-17T13:09:14;0.80;;;0.80;;
4460;SDS011;2243;48.812;9.232;2023-02-17T13:14:57;0.87;;;0.87;;
4460;SDS011;2243;48.812;9.232;2023-02-17T13:17:32;1.30;;;1.20;;
4460;SDS011;2243;48.812;9.232;2023-02-17T13:22:40;0.87;;;0.80;;
4460;SDS011;2243;48.812;9.232;2023-02-17T13:25:27;1.23;;;1.20;;
4460;SDS011;2243;48.812;9.232;2023-02-17T13:28:14;1.10;;;1.10;;
4460;SDS011;2243;48.812;9.232;2023-02-17T13:30:48;1.27;;;1.00;;
4460;SDS011;2243;48.812;9.232;2023-02-17T13:35:52;1.30;;;1.20;;
4460;SDS011;2243;48.812;9.232;2023-02-17T13:38:30;2.50;;;1.23;;
4460;SDS011;2243;48.812;9.232;2023-02-17T13:41:04;1.50;;;1.40;;
4460;SDS011;2243;48.812;9.232;2023-02-17T13:43:40;1.50;;;1.40;;
4460;SDS011;2243;48.812;9.232;2023-02-17T13:46:16;1.17;;;1.17;;
4460;SDS011;2243;48.812;9.232;2023-02-17T13:49:00;3.63;;;1.37;;
4460;SDS011;2243;48.812;9.232;2023-02-17T13:51:35;1.40;;;1.40;;
4460;SDS011;2243;48.812;9.232;2023-02-17T13:54:07;2.00;;;1.10;;
4460;SDS011;2243;48.812;9.232;2023-02-17T13:56:40;2.33;;;1.60;;
4460;SDS011;2243;48.812;9.232;2023-02-17T13:59:15;1.40;;;1.30;;
4460;SDS011;2243;48.812;9.232;2023-02-17T14:01:47;1.73;;;1.20;;
4460;SDS011;2243;48.812;9.232;2023-02-17T14:04:21;1.13;;;1.03;;
4460;SDS011;2243;48.812;9.232;2023-02-17T14:06:57;0.80;;;0.80;;
4460;SDS011;2243;48.812;9.232;2023-02-17T14:09:31;2.50;;;1.10;;
4460;SDS011;2243;48.812;9.232;2023-02-17T14:12:05;1.57;;;1.47;;
4460;SDS011;2243;48.812;9.232;2023-02-17T14:14:53;1.20;;;1.10;;
4460;SDS011;2243;48.812;9.232;2023-02-17T14:17:30;1.47;;;1.00;;
4460;SDS011;2243;48.812;9.232;2023-02-17T14:20:02;1.87;;;1.40;;
4460;SDS011;2243;48.812;9.232;2023-02-17T14:22:34;1.17;;;1.07;;
4460;SDS011;2243;48.812;9.232;2023-02-17T14:25:10;2.00;;;1.30;;
4460;SDS011;2243;48.812;9.232;2023-02-17T14:27:47;1.70;;;1.60;;
4460;SDS011;2243;48.812;9.232;2023-02-17T14:36:03;1.07;;;1.07;;
4460;SDS011;2243;48.812;9.232;2023-02-17T14:38:39;1.33;;;1.27;;
4460;SDS011;2243;48.812;9.232;2023-02-17T14:41:11;2.37;;;1.20;;
4460;SDS011;2243;48.812;9.232;2023-02-17T14:43:42;1.20;;;1.10;;
4460;SDS011;2243;48.812;9.232;2023-02-17T14:46:13;7.10;;;1.50;;
4460;SDS011;2243;48.812;9.232;2023-02-17T14:48:49;1.30;;;1.30;;
4460;SDS011;2243;48.812;9.232;2023-02-17T14:51:21;2.00;;;1.53;;
4460;SDS011;2243;48.812;9.232;2023-02-17T14:53:55;1.30;;;1.30;;
4460;SDS011;2243;48.812;9.232;2023-02-17T14:56:29;1.20;;;1.20;;
4460;SDS011;2243;48.812;9.232;2023-02-17T14:59:04;2.17;;;1.57;;
4460;SDS011;2243;48.812;9.232;2023-02-17T15:01:35;1.53;;;1.43;;
4460;SDS011;2243;48.812;9.232;2023-02-17T15:04:06;1.90;;;1.67;;
4460;SDS011;2243;48.812;9.232;2023-02-17T15:06:38;8.40;;;1.80;;
4460;SDS011;2243;48.812;9.232;2023-02-17T15:09:14;2.00;;;1.67;;
4460;SDS011;2243;48.812;9.232;2023-02-17T15:11:47;1.67;;;1.43;;
4460;SDS011;2243;48.812;9.232;2023-02-17T15:14:19;3.60;;;1.47;;
4460;SDS011;2243;48.812;9.232;2023-02-17T15:16:50;1.30;;;1.20;;
4460;SDS011;2243;48.812;9.232;2023-02-17T15:19:21;1.27;;;1.20;;
4460;SDS011;2243;48.812;9.232;2023-02-17T15:21:53;1.67;;;1.57;;
4460;SDS011;2243;48.812;9.232;2023-02-17T15:24:26;2.50;;;1.57;;
4460;SDS011;2243;48.812;9.232;2023-02-17T15:27:02;1.50;;;1.40;;
4460;SDS011;2243;48.812;9.232;2023-02-17T15:29:35;2.40;;;1.90;;
4460;SDS011;2243;48.812;9.232;2023-02-17T15:32:09;2.13;;;1.90;;
4460;SDS011;2243;48.812;9.232;2023-02-17T15:34:47;2.33;;;2.13;;
4460;SDS011;2243;48.812;9.232;2023-02-17T15:37:18;1.60;;;1.60;;
4460;SDS011;2243;48.812;9.232;2023-02-17T15:39:49;2.50;;;2.30;;
4460;SDS011;2243;48.812;9.232;2023-02-17T15:42:20;1.80;;;1.70;;
4460;SDS011;2243;48.812;9.232;2023-02-17T15:44:51;2.30;;;2.20;;
4460;SDS011;2243;48.812;9.232;2023-02-17T15:47:22;3.67;;;2.37;;
4460;SDS011;2243;48.812;9.232;2023-02-17T15:49:53;3.23;;;2.77;;
4460;SDS011;2243;48.812;9.232;2023-02-17T15:52:24;2.27;;;2.17;;
4460;SDS011;2243;48.812;9.232;2023-02-17T15:54:55;2.43;;;2.30;;
4460;SDS011;2243;48.812;9.232;2023-02-17T15:57:26;2.67;;;1.90;;
4460;SDS011;2243;48.812;9.232;2023-02-17T15:59:58;2.60;;;2.30;;
4460;SDS011;2243;48.812;9.232;2023-02-17T16:02:29;2.33;;;2.10;;
4460;SDS011;2243;48.812;9.232;2023-02-17T16:05:00;2.70;;;2.00;;
4460;SDS011;2243;48.812;9.232;2023-02-17T16:07:31;2.30;;;2.10;;
4460;SDS011;2243;48.812;9.232;2023-02-17T16:10:02;2.33;;;2.23;;
4460;SDS011;2243;48.812;9.232;2023-02-17T16:12:34;1.83;;;1.73;;
4460;SDS011;2243;48.812;9.232;2023-02-17T16:15:09;1.83;;;1.73;;
4460;SDS011;2243;48.812;9.232;2023-02-17T16:17:52;2.20;;;2.10;;
4460;SDS011;2243;48.812;9.232;2023-02-17T16:20:26;4.23;;;2.23;;
4460;SDS011;2243;48.812;9.232;2023-02-17T16:23:04;2.13;;;2.03;;
4460;SDS011;2243;48.812;9.232;2023-02-17T16:25:35;5.50;;;2.03;;
4460;SDS011;2243;48.812;9.232;2023-02-17T16:28:08;2.63;;;2.43;;
4460;SDS011;2243;48.812;9.232;2023-02-17T16:30:50;2.83;;;2.60;;
4460;SDS011;2243;48.812;9.232;2023-02-17T16:33:21;3.37;;;2.10;;
4460;SDS011;2243;48.812;9.232;2023-02-17T16:35:52;2.47;;;2.30;;
4460;SDS011;2243;48.812;9.232;2023-02-17T16:38:24;2.40;;;2.20;;
4460;SDS011;2243;48.812;9.232;2023-02-17T16:40:55;2.30;;;2.20;;
4460;SDS011;2243;48.812;9.232;2023-02-17T16:43:26;4.33;;;2.50;;
4460;SDS011;2243;48.812;9.232;2023-02-17T16:46:00;2.07;;;1.57;;
4460;SDS011;2243;48.812;9.232;2023-02-17T16:48:33;1.97;;;1.87;;
4460;SDS011;2243;48.812;9.232;2023-02-17T16:51:06;2.17;;;2.07;;
4460;SDS011;2243;48.812;9.232;2023-02-17T16:53:37;1.97;;;1.83;;
4460;SDS011;2243;48.812;9.232;2023-02-17T16:56:13;3.20;;;2.70;;
4460;SDS011;2243;48.812;9.232;2023-02-17T16:58:49;3.03;;;2.20;;
4460;SDS011;2243;48.812;9.232;2023-02-17T17:01:21;2.37;;;2.17;;
4460;SDS011;2243;48.812;9.232;2023-02-17T17:03:53;2.03;;;1.87;;
4460;SDS011;2243;48.812;9.232;2023-02-17T17:06:26;8.43;;;2.70;;
4460;SDS011;2243;48.812;9.232;2023-02-17T17:08:59;4.50;;;3.00;;
4460;SDS011;2243;48.812;9.232;2023-02-17T17:11:30;2.90;;;2.70;;
4460;SDS011;2243;48.812;9.232;2023-02-17T17:14:02;2.60;;;2.50;;
4460;SDS011;2243;48.812;9.232;2023-02-17T17:16:33;3.20;;;2.13;;
4460;SDS011;2243;48.812;9.232;2023-02-17T17:19:04;2.87;;;2.67;;
4460;SDS011;2243;48.812;9.232;2023-02-17T17:21:35;4.43;;;2.80;;
4460;SDS011;2243;48.812;9.232;2023-02-17T17:24:06;3.40;;;3.10;;
4460;SDS011;2243;48.812;9.232;2023-02-17T17:26:38;5.63;;;2.53;;
4460;SDS011;2243;48.812;9.232;2023-02-17T17:29:15;3.60;;;2.40;;
4460;SDS011;2243;48.812;9.232;2023-02-17T17:31:47;4.50;;;2.90;;